SYN001 KDEN-KSLC
Flight info
| Callsign | SYN001 |
|---|---|
| Flight time | 1h 1m |
| Altitude | 36000 |
| Route | ZIMMR4 CHNGY EKR RACER JAZZZ1 |
| Aircraft | BCS3/M-SBDE2E3GIRWXY/LB1 |
Departure
| Time | 2026-05-08 04:52 |
|---|---|
| Airport | Denver International Airport (KDEN) |
Arrival
| Time | 2026-05-08 05:54 |
|---|---|
| Airport | Salt Lake City International Airport (KSLC) |
| Time | Latitude | Longitude | Altitude | Speed | Heading |
|---|---|---|---|---|---|
| 2026-05-08 04:23 | 39.85926 | -104.67198 | 5382 ft | 0 kts | 179° |
| 2026-05-08 04:39 | 39.85928 | -104.67198 | 5382 ft | 2 kts | 179° |
| 2026-05-08 04:39 | 39.85945 | -104.67198 | 5380 ft | 2 kts | 179° |
| 2026-05-08 04:40 | 39.85963 | -104.67198 | 5377 ft | 3 kts | 179° |
| 2026-05-08 04:40 | 39.85980 | -104.67198 | 5375 ft | 2 kts | 194° |
| 2026-05-08 04:40 | 39.85996 | -104.67189 | 5378 ft | 2 kts | 221° |
| 2026-05-08 04:40 | 39.86006 | -104.67173 | 5378 ft | 2 kts | 248° |
| 2026-05-08 04:41 | 39.86010 | -104.67153 | 5376 ft | 0 kts | 268° |
| 2026-05-08 04:43 | 39.86010 | -104.67154 | 5376 ft | 0 kts | 268° |
| 2026-05-08 04:44 | 39.86009 | -104.67160 | 5376 ft | 2 kts | 268° |
| 2026-05-08 04:44 | 39.86008 | -104.67224 | 5377 ft | 15 kts | 268° |
| 2026-05-08 04:44 | 39.86003 | -104.67400 | 5381 ft | 21 kts | 265° |
| 2026-05-08 04:44 | 39.86003 | -104.67602 | 5378 ft | 23 kts | 270° |
| 2026-05-08 04:45 | 39.86005 | -104.67809 | 5377 ft | 23 kts | 270° |
| 2026-05-08 04:45 | 39.86018 | -104.67998 | 5372 ft | 14 kts | 301° |
| 2026-05-08 04:45 | 39.86034 | -104.68125 | 5372 ft | 15 kts | 272° |
| 2026-05-08 04:45 | 39.86035 | -104.68268 | 5369 ft | 17 kts | 268° |
| 2026-05-08 04:46 | 39.86032 | -104.68431 | 5368 ft | 19 kts | 270° |
| 2026-05-08 04:46 | 39.86034 | -104.68611 | 5365 ft | 21 kts | 271° |
| 2026-05-08 04:46 | 39.86035 | -104.68802 | 5363 ft | 22 kts | 270° |
| 2026-05-08 04:46 | 39.86036 | -104.69006 | 5359 ft | 23 kts | 269° |
| 2026-05-08 04:47 | 39.86037 | -104.69228 | 5352 ft | 26 kts | 271° |
| 2026-05-08 04:47 | 39.86022 | -104.69414 | 5340 ft | 17 kts | 230° |
| 2026-05-08 04:47 | 39.85936 | -104.69438 | 5340 ft | 11 kts | 180° |
| 2026-05-08 04:47 | 39.85856 | -104.69439 | 5340 ft | 13 kts | 180° |
| 2026-05-08 04:48 | 39.85738 | -104.69440 | 5340 ft | 20 kts | 180° |
| 2026-05-08 04:48 | 39.85595 | -104.69441 | 5339 ft | 21 kts | 180° |
| 2026-05-08 04:48 | 39.85448 | -104.69443 | 5339 ft | 21 kts | 180° |
| 2026-05-08 04:48 | 39.85297 | -104.69445 | 5338 ft | 19 kts | 180° |
| 2026-05-08 04:49 | 39.85238 | -104.69447 | 5340 ft | 8 kts | 185° |
| 2026-05-08 04:49 | 39.85215 | -104.69465 | 5336 ft | 3 kts | 234° |
| 2026-05-08 04:49 | 39.85208 | -104.69482 | 5336 ft | 0 kts | 245° |
| 2026-05-08 04:49 | 39.85206 | -104.69492 | 5336 ft | 2 kts | 259° |
| 2026-05-08 04:50 | 39.85202 | -104.69526 | 5336 ft | 5 kts | 270° |
| 2026-05-08 04:50 | 39.85203 | -104.69538 | 5336 ft | 1 kts | 272° |
| 2026-05-08 04:50 | 39.85204 | -104.69570 | 5336 ft | 11 kts | 272° |
| 2026-05-08 04:50 | 39.85238 | -104.69658 | 5335 ft | 2 kts | 341° |
| 2026-05-08 04:51 | 39.85268 | -104.69658 | 5338 ft | 6 kts | 4° |
| 2026-05-08 04:51 | 39.85277 | -104.69659 | 5338 ft | 2 kts | 0° |
| 2026-05-08 04:51 | 39.85350 | -104.69658 | 5338 ft | 33 kts | 0° |
| 2026-05-08 04:51 | 39.85809 | -104.69653 | 5342 ft | 97 kts | 0° |
| 2026-05-08 04:52 | 39.86688 | -104.69642 | 5337 ft | 154 kts | 1° |
| 2026-05-08 04:52 | 39.87781 | -104.69644 | 5966 ft | 157 kts | 1° |
| 2026-05-08 04:52 | 39.88912 | -104.69643 | 6356 ft | 174 kts | 359° |
| 2026-05-08 04:52 | 39.90132 | -104.69584 | 7104 ft | 173 kts | 359° |
| 2026-05-08 04:53 | 39.91324 | -104.69494 | 7907 ft | 176 kts | 359° |
| 2026-05-08 04:53 | 39.92518 | -104.69902 | 8532 ft | 183 kts | 322° |
| 2026-05-08 04:53 | 39.93249 | -104.71271 | 9232 ft | 194 kts | 287° |
| 2026-05-08 04:53 | 39.93308 | -104.73101 | 9848 ft | 215 kts | 268° |
| 2026-05-08 04:54 | 39.93123 | -104.75185 | 10008 ft | 249 kts | 269° |
| 2026-05-08 04:54 | 39.93044 | -104.77604 | 10003 ft | 278 kts | 273° |
| 2026-05-08 04:54 | 39.93073 | -104.80097 | 9994 ft | 270 kts | 275° |
| 2026-05-08 04:54 | 39.93156 | -104.82538 | 9989 ft | 272 kts | 276° |
| 2026-05-08 04:55 | 39.93124 | -104.85023 | 9978 ft | 275 kts | 270° |
| 2026-05-08 04:55 | 39.93073 | -104.87547 | 10386 ft | 280 kts | 273° |
| 2026-05-08 04:55 | 39.93101 | -104.90050 | 11454 ft | 279 kts | 276° |
| 2026-05-08 04:55 | 39.93189 | -104.92581 | 12345 ft | 282 kts | 277° |
| 2026-05-08 04:56 | 39.93315 | -104.95147 | 13213 ft | 286 kts | 279° |
| 2026-05-08 04:56 | 39.93453 | -104.97721 | 13962 ft | 290 kts | 279° |
| 2026-05-08 04:56 | 39.93600 | -105.00363 | 14686 ft | 293 kts | 279° |
| 2026-05-08 04:56 | 39.93751 | -105.03031 | 15356 ft | 296 kts | 279° |
| 2026-05-08 04:57 | 39.93906 | -105.05722 | 16065 ft | 300 kts | 279° |
| 2026-05-08 04:57 | 39.94062 | -105.08445 | 16796 ft | 302 kts | 279° |
| 2026-05-08 04:57 | 39.94222 | -105.11197 | 17479 ft | 306 kts | 279° |
| 2026-05-08 04:57 | 39.94384 | -105.13988 | 18178 ft | 309 kts | 279° |
| 2026-05-08 04:58 | 39.94547 | -105.16803 | 18780 ft | 314 kts | 279° |
| 2026-05-08 04:58 | 39.94712 | -105.19645 | 19375 ft | 317 kts | 279° |
| 2026-05-08 04:58 | 39.94879 | -105.22532 | 19969 ft | 320 kts | 279° |
| 2026-05-08 04:58 | 39.95048 | -105.25449 | 20566 ft | 324 kts | 279° |
| 2026-05-08 04:59 | 39.95218 | -105.28399 | 21121 ft | 328 kts | 279° |
| 2026-05-08 04:59 | 39.95387 | -105.31339 | 21693 ft | 330 kts | 279° |
| 2026-05-08 04:59 | 39.95559 | -105.34341 | 22233 ft | 334 kts | 279° |
| 2026-05-08 04:59 | 39.95733 | -105.37386 | 22793 ft | 339 kts | 279° |
| 2026-05-08 05:00 | 39.95908 | -105.40463 | 23405 ft | 341 kts | 279° |
| 2026-05-08 05:00 | 39.96085 | -105.43578 | 23897 ft | 345 kts | 279° |
| 2026-05-08 05:00 | 39.96262 | -105.46712 | 24361 ft | 348 kts | 279° |
| 2026-05-08 05:00 | 39.96438 | -105.49866 | 24856 ft | 350 kts | 279° |
| 2026-05-08 05:01 | 39.96616 | -105.53035 | 25316 ft | 353 kts | 279° |
| 2026-05-08 05:01 | 39.96794 | -105.56241 | 25776 ft | 354 kts | 279° |
| 2026-05-08 05:01 | 39.96971 | -105.59431 | 26221 ft | 358 kts | 280° |
| 2026-05-08 05:01 | 39.97149 | -105.62673 | 26703 ft | 360 kts | 280° |
| 2026-05-08 05:02 | 39.97328 | -105.65932 | 27145 ft | 362 kts | 280° |
| 2026-05-08 05:02 | 39.97508 | -105.69277 | 27268 ft | 375 kts | 279° |
| 2026-05-08 05:02 | 39.97690 | -105.72735 | 27343 ft | 389 kts | 279° |
| 2026-05-08 05:02 | 39.97876 | -105.76314 | 27442 ft | 400 kts | 279° |
| 2026-05-08 05:03 | 39.98058 | -105.79940 | 27906 ft | 402 kts | 279° |
| 2026-05-08 05:03 | 39.98240 | -105.83588 | 28318 ft | 404 kts | 279° |
| 2026-05-08 05:03 | 39.98419 | -105.87200 | 28735 ft | 406 kts | 279° |
| 2026-05-08 05:03 | 39.98602 | -105.90910 | 29105 ft | 409 kts | 279° |
| 2026-05-08 05:04 | 39.98784 | -105.94627 | 29443 ft | 412 kts | 279° |
| 2026-05-08 05:04 | 39.98966 | -105.98359 | 29796 ft | 414 kts | 279° |
| 2026-05-08 05:04 | 39.99147 | -106.02106 | 30173 ft | 416 kts | 279° |
| 2026-05-08 05:04 | 39.99328 | -106.05884 | 30478 ft | 417 kts | 279° |
| 2026-05-08 05:05 | 39.99510 | -106.09681 | 30723 ft | 419 kts | 279° |
| 2026-05-08 05:05 | 39.99689 | -106.13478 | 31006 ft | 421 kts | 279° |
| 2026-05-08 05:05 | 39.99868 | -106.17285 | 31297 ft | 421 kts | 279° |
| 2026-05-08 05:05 | 40.00047 | -106.21101 | 31551 ft | 422 kts | 279° |
| 2026-05-08 05:06 | 40.00225 | -106.24935 | 31784 ft | 424 kts | 279° |
| 2026-05-08 05:06 | 40.00402 | -106.28774 | 32019 ft | 425 kts | 279° |
| 2026-05-08 05:06 | 40.00578 | -106.32617 | 32253 ft | 426 kts | 279° |
| 2026-05-08 05:06 | 40.00754 | -106.36487 | 32484 ft | 427 kts | 279° |
| 2026-05-08 05:07 | 40.00928 | -106.40349 | 32701 ft | 428 kts | 279° |
| 2026-05-08 05:07 | 40.01102 | -106.44239 | 32906 ft | 429 kts | 279° |
| 2026-05-08 05:07 | 40.01277 | -106.48122 | 33126 ft | 430 kts | 279° |
| 2026-05-08 05:07 | 40.01470 | -106.52025 | 33297 ft | 430 kts | 279° |
| 2026-05-08 05:08 | 40.01661 | -106.55873 | 33489 ft | 430 kts | 279° |
| 2026-05-08 05:08 | 40.01854 | -106.59769 | 33746 ft | 429 kts | 279° |
| 2026-05-08 05:08 | 40.02043 | -106.63640 | 34011 ft | 428 kts | 279° |
| 2026-05-08 05:08 | 40.02231 | -106.67506 | 34231 ft | 427 kts | 279° |
| 2026-05-08 05:09 | 40.02418 | -106.71369 | 34419 ft | 426 kts | 279° |
| 2026-05-08 05:09 | 40.02604 | -106.75233 | 34597 ft | 426 kts | 279° |
| 2026-05-08 05:09 | 40.02788 | -106.79091 | 34823 ft | 425 kts | 279° |
| 2026-05-08 05:09 | 40.02970 | -106.82942 | 35012 ft | 425 kts | 279° |
| 2026-05-08 05:10 | 40.03150 | -106.86784 | 35221 ft | 424 kts | 279° |
| 2026-05-08 05:10 | 40.03508 | -106.94474 | 35589 ft | 424 kts | 278° |
| 2026-05-08 05:10 | 40.03682 | -106.98265 | 35794 ft | 423 kts | 278° |
| 2026-05-08 05:11 | 40.03857 | -107.02100 | 35952 ft | 424 kts | 278° |
| 2026-05-08 05:11 | 40.04206 | -107.09813 | 36048 ft | 430 kts | 278° |
| 2026-05-08 05:12 | 40.04549 | -107.17577 | 36028 ft | 420 kts | 278° |
| 2026-05-08 05:12 | 40.04878 | -107.25135 | 36033 ft | 419 kts | 278° |
| 2026-05-08 05:13 | 40.05211 | -107.32816 | 36028 ft | 428 kts | 278° |
| 2026-05-08 05:13 | 40.05539 | -107.40560 | 36015 ft | 421 kts | 278° |
| 2026-05-08 05:14 | 40.05854 | -107.48121 | 36034 ft | 419 kts | 278° |
| 2026-05-08 05:14 | 40.06171 | -107.55785 | 36049 ft | 427 kts | 278° |
| 2026-05-08 05:15 | 40.06485 | -107.63551 | 36067 ft | 424 kts | 278° |
| 2026-05-08 05:15 | 40.06784 | -107.71153 | 36098 ft | 419 kts | 278° |
| 2026-05-08 05:16 | 40.07086 | -107.78788 | 36119 ft | 427 kts | 278° |
| 2026-05-08 05:16 | 40.07382 | -107.86509 | 36112 ft | 421 kts | 278° |
| 2026-05-08 05:17 | 40.07669 | -107.94131 | 36117 ft | 422 kts | 278° |
| 2026-05-08 05:17 | 40.07910 | -108.00559 | 36111 ft | 427 kts | 278° |
| 2026-05-08 05:18 | 40.08189 | -108.08262 | 36078 ft | 420 kts | 278° |
| 2026-05-08 05:18 | 40.08464 | -108.15896 | 36044 ft | 425 kts | 278° |
| 2026-05-08 05:19 | 40.08737 | -108.23617 | 36005 ft | 426 kts | 278° |
| 2026-05-08 05:19 | 40.09000 | -108.31300 | 35979 ft | 420 kts | 278° |
| 2026-05-08 05:20 | 40.09262 | -108.38972 | 35950 ft | 427 kts | 278° |
| 2026-05-08 05:20 | 40.09513 | -108.46657 | 35887 ft | 418 kts | 279° |
| 2026-05-08 05:21 | 40.09754 | -108.54129 | 35883 ft | 414 kts | 280° |
| 2026-05-08 05:21 | 40.09878 | -108.57899 | 35573 ft | 414 kts | 280° |
| 2026-05-08 05:21 | 40.09999 | -108.61676 | 34842 ft | 417 kts | 280° |
| 2026-05-08 05:21 | 40.10124 | -108.65504 | 33884 ft | 425 kts | 280° |
| 2026-05-08 05:22 | 40.10245 | -108.69366 | 33169 ft | 424 kts | 280° |
| 2026-05-08 05:22 | 40.10362 | -108.73210 | 32516 ft | 421 kts | 279° |
| 2026-05-08 05:22 | 40.10475 | -108.77007 | 32021 ft | 415 kts | 280° |
| 2026-05-08 05:22 | 40.10583 | -108.80694 | 31920 ft | 408 kts | 280° |
| 2026-05-08 05:23 | 40.10697 | -108.84423 | 31932 ft | 414 kts | 280° |
| 2026-05-08 05:23 | 40.10951 | -108.92061 | 31944 ft | 424 kts | 280° |
| 2026-05-08 05:24 | 40.11234 | -108.99634 | 31941 ft | 411 kts | 281° |
| 2026-05-08 05:24 | 40.11521 | -109.07191 | 31952 ft | 422 kts | 280° |
| 2026-05-08 05:25 | 40.11796 | -109.14788 | 31940 ft | 413 kts | 280° |
| 2026-05-08 05:25 | 40.12068 | -109.22324 | 31947 ft | 420 kts | 280° |
| 2026-05-08 05:26 | 40.12334 | -109.29932 | 31943 ft | 415 kts | 280° |
| 2026-05-08 05:26 | 40.12593 | -109.37453 | 31961 ft | 417 kts | 280° |
| 2026-05-08 05:27 | 40.12849 | -109.45016 | 31965 ft | 417 kts | 280° |
| 2026-05-08 05:27 | 40.13097 | -109.52539 | 31976 ft | 417 kts | 280° |
| 2026-05-08 05:28 | 40.13346 | -109.60167 | 31972 ft | 417 kts | 280° |
| 2026-05-08 05:28 | 40.13585 | -109.67717 | 31975 ft | 416 kts | 280° |
| 2026-05-08 05:29 | 40.13823 | -109.75311 | 31963 ft | 418 kts | 279° |
| 2026-05-08 05:29 | 40.14052 | -109.82872 | 31961 ft | 415 kts | 279° |
| 2026-05-08 05:30 | 40.14278 | -109.90395 | 31964 ft | 418 kts | 279° |
| 2026-05-08 05:30 | 40.14497 | -109.97978 | 31968 ft | 416 kts | 279° |
| 2026-05-08 05:31 | 40.14715 | -110.05576 | 31971 ft | 418 kts | 279° |
| 2026-05-08 05:31 | 40.14914 | -110.13163 | 31971 ft | 418 kts | 278° |
| 2026-05-08 05:32 | 40.14877 | -110.20787 | 31366 ft | 425 kts | 276° |
| 2026-05-08 05:32 | 40.14841 | -110.24634 | 30844 ft | 420 kts | 276° |
| 2026-05-08 05:32 | 40.14804 | -110.28422 | 30367 ft | 414 kts | 276° |
| 2026-05-08 05:32 | 40.14767 | -110.32162 | 29894 ft | 410 kts | 276° |
| 2026-05-08 05:33 | 40.14733 | -110.35872 | 29396 ft | 408 kts | 276° |
| 2026-05-08 05:33 | 40.14698 | -110.39590 | 28939 ft | 408 kts | 276° |
| 2026-05-08 05:33 | 40.14661 | -110.43290 | 28500 ft | 405 kts | 275° |
| 2026-05-08 05:33 | 40.14624 | -110.46957 | 28063 ft | 402 kts | 275° |
| 2026-05-08 05:34 | 40.14587 | -110.50608 | 27635 ft | 401 kts | 275° |
| 2026-05-08 05:34 | 40.14549 | -110.54248 | 27195 ft | 400 kts | 275° |
| 2026-05-08 05:34 | 40.14510 | -110.57874 | 26765 ft | 398 kts | 275° |
| 2026-05-08 05:34 | 40.14470 | -110.61484 | 26335 ft | 396 kts | 274° |
| 2026-05-08 05:35 | 40.14430 | -110.65021 | 25910 ft | 394 kts | 274° |
| 2026-05-08 05:35 | 40.14388 | -110.68609 | 25494 ft | 394 kts | 274° |
| 2026-05-08 05:35 | 40.14345 | -110.72177 | 25062 ft | 391 kts | 274° |
| 2026-05-08 05:35 | 40.14302 | -110.75725 | 24644 ft | 389 kts | 274° |
| 2026-05-08 05:36 | 40.14257 | -110.79241 | 24226 ft | 388 kts | 273° |
| 2026-05-08 05:36 | 40.14212 | -110.82785 | 23805 ft | 388 kts | 273° |
| 2026-05-08 05:36 | 40.14166 | -110.86300 | 23336 ft | 385 kts | 273° |
| 2026-05-08 05:36 | 40.14119 | -110.89727 | 22881 ft | 379 kts | 273° |
| 2026-05-08 05:37 | 40.14071 | -110.93157 | 22464 ft | 376 kts | 273° |
| 2026-05-08 05:37 | 40.14022 | -110.96570 | 22058 ft | 374 kts | 273° |
| 2026-05-08 05:37 | 40.13974 | -110.99960 | 21656 ft | 372 kts | 272° |
| 2026-05-08 05:37 | 40.13924 | -111.03315 | 21251 ft | 367 kts | 272° |
| 2026-05-08 05:38 | 40.13874 | -111.06634 | 20845 ft | 364 kts | 273° |
| 2026-05-08 05:38 | 40.13824 | -111.09936 | 20453 ft | 362 kts | 272° |
| 2026-05-08 05:38 | 40.13773 | -111.13214 | 20064 ft | 358 kts | 272° |
| 2026-05-08 05:38 | 40.13722 | -111.16461 | 19675 ft | 356 kts | 272° |
| 2026-05-08 05:39 | 40.13671 | -111.19641 | 19291 ft | 353 kts | 272° |
| 2026-05-08 05:39 | 40.13618 | -111.22837 | 18911 ft | 350 kts | 272° |
| 2026-05-08 05:39 | 40.13565 | -111.26005 | 18533 ft | 347 kts | 272° |
| 2026-05-08 05:39 | 40.13512 | -111.29151 | 18134 ft | 345 kts | 272° |
| 2026-05-08 05:40 | 40.13459 | -111.32262 | 17721 ft | 340 kts | 272° |
| 2026-05-08 05:40 | 40.13405 | -111.35342 | 17339 ft | 337 kts | 272° |
| 2026-05-08 05:40 | 40.13351 | -111.38401 | 16965 ft | 336 kts | 272° |
| 2026-05-08 05:40 | 40.13296 | -111.41445 | 16604 ft | 333 kts | 272° |
| 2026-05-08 05:41 | 40.13241 | -111.44417 | 16246 ft | 328 kts | 272° |
| 2026-05-08 05:41 | 40.13187 | -111.47432 | 15897 ft | 327 kts | 271° |
| 2026-05-08 05:41 | 40.13132 | -111.50367 | 15569 ft | 328 kts | 271° |
| 2026-05-08 05:41 | 40.13097 | -111.53327 | 15232 ft | 321 kts | 276° |
| 2026-05-08 05:42 | 40.13599 | -111.56081 | 15051 ft | 302 kts | 291° |
| 2026-05-08 05:42 | 40.14343 | -111.58539 | 15010 ft | 283 kts | 293° |
| 2026-05-08 05:42 | 40.15132 | -111.60953 | 15020 ft | 293 kts | 294° |
| 2026-05-08 05:42 | 40.15943 | -111.63384 | 15014 ft | 288 kts | 294° |
| 2026-05-08 05:43 | 40.16742 | -111.65771 | 15016 ft | 286 kts | 294° |
| 2026-05-08 05:43 | 40.17864 | -111.67917 | 15023 ft | 290 kts | 311° |
| 2026-05-08 05:43 | 40.19296 | -111.69763 | 15020 ft | 289 kts | 315° |
| 2026-05-08 05:43 | 40.20780 | -111.71553 | 15019 ft | 290 kts | 316° |
| 2026-05-08 05:44 | 40.22256 | -111.73315 | 14994 ft | 290 kts | 316° |
| 2026-05-08 05:44 | 40.23758 | -111.75109 | 14619 ft | 293 kts | 316° |
| 2026-05-08 05:44 | 40.25245 | -111.76883 | 14260 ft | 285 kts | 315° |
| 2026-05-08 05:44 | 40.26707 | -111.78629 | 13933 ft | 284 kts | 315° |
| 2026-05-08 05:45 | 40.28174 | -111.80386 | 13602 ft | 285 kts | 315° |
| 2026-05-08 05:45 | 40.29632 | -111.82133 | 13271 ft | 283 kts | 315° |
| 2026-05-08 05:45 | 40.31086 | -111.83875 | 12949 ft | 283 kts | 315° |
| 2026-05-08 05:45 | 40.32539 | -111.85620 | 12626 ft | 283 kts | 315° |
| 2026-05-08 05:46 | 40.33982 | -111.87359 | 12304 ft | 282 kts | 316° |
| 2026-05-08 05:46 | 40.35485 | -111.88977 | 11969 ft | 278 kts | 328° |
| 2026-05-08 05:46 | 40.37283 | -111.89767 | 11672 ft | 268 kts | 345° |
| 2026-05-08 05:46 | 40.39094 | -111.90218 | 11380 ft | 263 kts | 347° |
| 2026-05-08 05:47 | 40.40896 | -111.90621 | 11092 ft | 263 kts | 347° |
| 2026-05-08 05:47 | 40.42699 | -111.91010 | 10803 ft | 262 kts | 348° |
| 2026-05-08 05:47 | 40.44489 | -111.91380 | 10502 ft | 257 kts | 348° |
| 2026-05-08 05:47 | 40.46201 | -111.91722 | 10237 ft | 248 kts | 348° |
| 2026-05-08 05:48 | 40.47874 | -111.92046 | 9950 ft | 239 kts | 349° |
| 2026-05-08 05:48 | 40.49511 | -111.92356 | 9591 ft | 235 kts | 349° |
| 2026-05-08 05:48 | 40.51111 | -111.92653 | 9278 ft | 230 kts | 350° |
| 2026-05-08 05:48 | 40.52677 | -111.92934 | 9023 ft | 223 kts | 350° |
| 2026-05-08 05:49 | 40.54202 | -111.93198 | 8717 ft | 220 kts | 351° |
| 2026-05-08 05:49 | 40.55717 | -111.93443 | 8406 ft | 217 kts | 351° |
| 2026-05-08 05:49 | 40.57207 | -111.93671 | 8132 ft | 214 kts | 351° |
| 2026-05-08 05:49 | 40.58676 | -111.93886 | 7868 ft | 210 kts | 352° |
| 2026-05-08 05:50 | 40.60086 | -111.94089 | 7596 ft | 202 kts | 352° |
| 2026-05-08 05:50 | 40.61457 | -111.94280 | 7340 ft | 194 kts | 352° |
| 2026-05-08 05:50 | 40.62776 | -111.94459 | 7086 ft | 187 kts | 352° |
| 2026-05-08 05:50 | 40.64044 | -111.94633 | 6855 ft | 180 kts | 352° |
| 2026-05-08 05:51 | 40.65247 | -111.94795 | 6646 ft | 168 kts | 353° |
| 2026-05-08 05:51 | 40.66381 | -111.94943 | 6416 ft | 160 kts | 353° |
| 2026-05-08 05:51 | 40.67476 | -111.95120 | 6220 ft | 157 kts | 350° |
| 2026-05-08 05:51 | 40.68565 | -111.95293 | 6028 ft | 158 kts | 353° |
| 2026-05-08 05:52 | 40.69671 | -111.95411 | 5825 ft | 159 kts | 354° |
| 2026-05-08 05:52 | 40.70752 | -111.95585 | 5612 ft | 158 kts | 347° |
| 2026-05-08 05:52 | 40.71818 | -111.95910 | 5391 ft | 155 kts | 347° |
| 2026-05-08 05:52 | 40.72881 | -111.96096 | 5154 ft | 155 kts | 357° |
| 2026-05-08 05:53 | 40.73966 | -111.96154 | 4926 ft | 155 kts | 358° |
| 2026-05-08 05:53 | 40.75051 | -111.96182 | 4705 ft | 156 kts | 359° |
| 2026-05-08 05:53 | 40.76137 | -111.96196 | 4506 ft | 157 kts | 359° |
| 2026-05-08 05:53 | 40.77234 | -111.96202 | 4298 ft | 158 kts | 359° |
| 2026-05-08 05:54 | 40.78268 | -111.96209 | 4235 ft | 126 kts | 360° |
| 2026-05-08 05:54 | 40.78927 | -111.96204 | 4238 ft | 46 kts | 0° |
| 2026-05-08 05:54 | 40.79139 | -111.96181 | 4235 ft | 15 kts | 53° |
| 2026-05-08 05:54 | 40.79148 | -111.96108 | 4236 ft | 0 kts | 93° |
| 2026-05-08 05:55 | 40.79148 | -111.96106 | 4235 ft | 1 kts | 93° |
| 2026-05-08 05:55 | 40.79147 | -111.96077 | 4236 ft | 3 kts | 93° |
| 2026-05-08 05:55 | 40.79144 | -111.96040 | 4234 ft | 6 kts | 103° |
| 2026-05-08 05:56 | 40.79087 | -111.96002 | 4237 ft | 13 kts | 178° |
| 2026-05-08 05:56 | 40.78988 | -111.96003 | 4237 ft | 5 kts | 180° |
| 2026-05-08 05:57 | 40.78981 | -111.96004 | 4237 ft | 4 kts | 184° |
| 2026-05-08 05:57 | 40.78939 | -111.96017 | 4238 ft | 5 kts | 200° |
| 2026-05-08 05:57 | 40.78910 | -111.96036 | 4239 ft | 4 kts | 209° |
| 2026-05-08 05:58 | 40.78884 | -111.96056 | 4240 ft | 4 kts | 209° |
| 2026-05-08 05:58 | 40.78862 | -111.96072 | 4238 ft | 0 kts | 209° |
| 2026-05-08 05:58 | 40.78858 | -111.96075 | 4240 ft | 1 kts | 209° |
| 2026-05-08 05:58 | 40.78857 | -111.96075 | 4240 ft | 0 kts | 209° |
| 2026-05-08 05:59 | 40.78855 | -111.96077 | 4239 ft | 1 kts | 209° |
| 2026-05-08 05:59 | 40.78832 | -111.96094 | 4238 ft | 9 kts | 209° |
| 2026-05-08 05:59 | 40.78748 | -111.96158 | 4238 ft | 16 kts | 213° |
| 2026-05-08 05:59 | 40.78676 | -111.96276 | 4237 ft | 17 kts | 248° |
| 2026-05-08 06:00 | 40.78644 | -111.96442 | 4234 ft | 20 kts | 256° |
| 2026-05-08 06:00 | 40.78611 | -111.96622 | 4234 ft | 20 kts | 256° |
| 2026-05-08 06:00 | 40.78578 | -111.96799 | 4235 ft | 20 kts | 256° |
| 2026-05-08 06:00 | 40.78546 | -111.96974 | 4235 ft | 8 kts | 256° |
| 2026-05-08 06:01 | 40.78543 | -111.96991 | 4236 ft | 0 kts | 256° |
| 2026-05-08 06:01 | 40.78542 | -111.96996 | 4236 ft | 2 kts | 256° |
| 2026-05-08 06:01 | 40.78531 | -111.97074 | 4236 ft | 11 kts | 268° |
| 2026-05-08 06:02 | 40.78546 | -111.97182 | 4235 ft | 12 kts | 286° |
| 2026-05-08 06:02 | 40.78571 | -111.97292 | 4239 ft | 13 kts | 287° |
| 2026-05-08 06:02 | 40.78601 | -111.97413 | 4236 ft | 15 kts | 291° |
| 2026-05-08 06:02 | 40.78632 | -111.97532 | 4237 ft | 11 kts | 277° |
| 2026-05-08 06:03 | 40.78635 | -111.97563 | 4238 ft | 0 kts | 276° |
| 2026-05-08 06:03 | 40.78635 | -111.97571 | 4238 ft | 4 kts | 271° |
| 2026-05-08 06:03 | 40.78627 | -111.97659 | 4240 ft | 12 kts | 264° |
| 2026-05-08 06:04 | 40.78622 | -111.97728 | 4239 ft | 2 kts | 266° |
| 2026-05-08 06:04 | 40.78627 | -111.97755 | 4236 ft | 4 kts | 296° |
| 2026-05-08 06:04 | 40.78649 | -111.97792 | 4239 ft | 6 kts | 313° |
| 2026-05-08 06:04 | 40.78671 | -111.97823 | 4237 ft | 0 kts | 313° |